Bitflower — SBJE — position and weather

sailwx.info

Track history (hours):
 
Tides and Currents Weather Stations Pressure Air Temp Water Temp Dewpoint Dewpoint Depression Visibility Wind Speed Wind Dir Waves Ship Positions

Bitflower

Last reported at 2016-Jun-28 18:33 UTC. Time now 2016-Jun-28 18:49 UTC.
Position N 51°32' E 002°07'.

Length 116 m; draft 6.8 m.

Type: Tanker. MMSI: 266009000.

Date/timePositionNaut miles runAvg speedWind from/ knotsBaromVisibWave heightAir tempDewpointWater temp
2016-Jun-28 18:33N 51°32' E 002°07'6512.8
2016-Jun-28 13:28N 52°04' E 003°40'1112.6
2016-Jun-28 12:33N 52°01' E 003°58'1413.6
2016-Jun-28 11:33N 51°54' E 004°17'3 2.6
2016-Jun-28 10:32N 51°53' E 004°21'0 0.0
2016-Jun-28 09:32N 51°53' E 004°21'0 0.0
2016-Jun-28 08:32N 51°53' E 004°21'0 0.0
2016-Jun-28 07:32N 51°53' E 004°21'0 0.0
2016-Jun-28 06:26N 51°53' E 004°21'0 0.0
2016-Jun-28 04:32N 51°53' E 004°21'0 0.0
2016-Jun-28 03:32N 51°53' E 004°21'0 0.0
2016-Jun-28 02:32N 51°53' E 004°21'0 0.0
2016-Jun-28 01:32N 51°53' E 004°21'0 0.0
2016-Jun-28 00:32N 51°53' E 004°21'0 0.0
2016-Jun-27 23:32N 51°53' E 004°21'0 0.0
2016-Jun-27 22:32N 51°53' E 004°21'0 0.0
2016-Jun-27 21:32N 51°53' E 004°21'0 0.0
2016-Jun-27 20:32N 51°53' E 004°21'0 0.0
2016-Jun-27 19:32N 51°53' E 004°21'0 0.0
2016-Jun-27 18:33N 51°53' E 004°21'1 1.2
2016-Jun-27 17:33N 51°54' E 004°19'2 1.5
2016-Jun-27 16:32N 51°53' E 004°16'0 0.0
2016-Jun-27 15:32N 51°53' E 004°16'0 0.0
2016-Jun-27 14:29N 51°53' E 004°16'0 0.0
2016-Jun-27 13:23N 51°53' E 004°16'0 0.0
2016-Jun-27 12:32N 51°53' E 004°16'0 0.0
2016-Jun-27 11:32N 51°53' E 004°16'0 0.0
2016-Jun-27 10:32N 51°53' E 004°16'0 0.0
2016-Jun-27 09:32N 51°53' E 004°16'0 0.0
2016-Jun-27 08:23N 51°53' E 004°16'0 0.0
2016-Jun-27 07:32N 51°53' E 004°16'0 0.3
2016-Jun-27 06:33N 51°53' E 004°17'6 6.1
2016-Jun-27 05:33N 51°57' E 004°09'1312.6
2016-Jun-27 04:34N 52°02' E 003°50'12 3.0
2016-Jun-27 00:28N 52°12' E 003°41'2311.9
2016-Jun-26 22:33N 52°34' E 003°51'3712.1
2016-Jun-26 19:30N 53°07' E 004°19'1112.0
2016-Jun-26 18:33N 53°17' E 004°28'4012.9
2016-Jun-26 15:26N 53°55' E 004°51'1613.0
2016-Jun-26 14:12N 54°10' E 005°02'23113.1
2016-Jun-25 20:33N 57°30' E 008°29'1313.2
2016-Jun-25 19:33N 57°40' E 008°44'1313.2
2016-Jun-25 18:33N 57°50' E 008°59'1313.2
2016-Jun-25 17:33N 58°01' E 009°13'1313.3
2016-Jun-25 16:33N 58°12' E 009°28'1313.3
2016-Jun-25 15:33N 58°23' E 009°43'1313.2
2016-Jun-25 14:33N 58°33' E 009°58'1313.2
2016-Jun-25 13:33N 58°44' E 010°13'1313.1
2016-Jun-25 12:33N 58°55' E 010°28'1312.7
2016-Jun-25 11:34N 59°02' E 010°48'8 8.3
2016-Jun-25 10:33N 59°09' E 010°58'8 7.8
2016-Jun-25 09:33N 59°16' E 011°04'1 0.9
2016-Jun-25 08:32N 59°16' E 011°02'0 0.0
2016-Jun-25 07:32N 59°16' E 011°02'0 0.0
2016-Jun-25 06:34N 59°16' E 011°02'0 0.0
2016-Jun-25 05:33N 59°16' E 011°02'0 0.0
2016-Jun-25 04:33N 59°16' E 011°02'0 0.0
2016-Jun-25 03:33N 59°16' E 011°02'0 0.0
2016-Jun-25 02:33N 59°16' E 011°02'0 0.0
2016-Jun-25 01:33N 59°16' E 011°02'0 0.0
2016-Jun-25 00:33N 59°16' E 011°02'0 0.0
2016-Jun-24 23:34N 59°16' E 011°02'0 0.0
2016-Jun-24 22:33N 59°16' E 011°02'0 0.0
2016-Jun-24 21:34N 59°16' E 011°02'0 0.0
2016-Jun-24 20:33N 59°16' E 011°02'0 0.0
2016-Jun-24 19:33N 59°16' E 011°02'0 0.0
2016-Jun-24 18:33N 59°16' E 011°02'5 4.8
2016-Jun-24 17:33N 59°12' E 010°57'1110.5
2016-Jun-24 16:33N 59°01' E 010°58'9 8.6
2016-Jun-24 15:33N 58°58' E 010°42'1110.6
2016-Jun-24 14:34N 58°47' E 010°43'1212.4
2016-Jun-24 13:33N 58°35' E 010°47'1313.4
2016-Jun-24 12:33N 58°22' E 010°56'1313.3
2016-Jun-24 11:33N 58°10' E 011°03'1313.3
2016-Jun-24 10:33N 57°58' E 011°13'1312.9
2016-Jun-24 09:33N 57°46' E 011°24'1212.1
2016-Jun-24 08:33N 57°37' E 011°38'8 8.0
2016-Jun-24 07:31N 57°42' E 011°51'0 0.0
2016-Jun-24 04:31N 57°42' E 011°51'0 0.0
2016-Jun-24 03:31N 57°42' E 011°51'0 0.0
2016-Jun-24 02:31N 57°42' E 011°51'0 0.0
2016-Jun-24 01:31N 57°42' E 011°51'0 0.0
2016-Jun-24 00:31N 57°42' E 011°51'0 0.0
2016-Jun-23 23:31N 57°42' E 011°51'0 0.0
2016-Jun-23 22:31N 57°42' E 011°51'0 0.0
2016-Jun-23 21:31N 57°42' E 011°51'0 0.0
2016-Jun-23 20:28N 57°42' E 011°51'0 0.0
2016-Jun-23 19:31N 57°42' E 011°51'0 0.0
2016-Jun-23 18:31N 57°42' E 011°51'0 0.0
2016-Jun-23 17:31N 57°42' E 011°51'0 0.1
2016-Jun-23 16:33N 57°42' E 011°51'9 9.1
2016-Jun-23 15:33N 57°35' E 011°39'1111.5
2016-Jun-23 14:34N 57°24' E 011°42'1312.0
2016-Jun-23 13:30N 57°13' E 011°53'1212.9
2016-Jun-23 12:33N 57°01' E 012°02'1313.0
2016-Jun-23 11:33N 56°49' E 012°11'1312.7
2016-Jun-23 10:33N 56°37' E 012°17'2512.5
2016-Jun-23 08:34N 56°13' E 012°27'1312.6
2016-Jun-23 07:34N 56°02' E 012°40'2512.5
2016-Jun-23 05:34N 55°39' E 012°56'1111.0
2016-Jun-23 04:33N 55°31' E 012°44'1212.5
2016-Jun-23 03:33N 55°18' E 012°41'1312.9
2016-Jun-23 02:33N 55°15' E 013°03'1313.4
2016-Jun-23 01:33N 55°15' E 013°27'1313.3
2016-Jun-23 00:34N 55°14' E 013°50'1313.4
2016-Jun-22 23:33N 55°13' E 014°14'1212.4
2016-Jun-22 22:33N 55°22' E 014°29'1312.9
2016-Jun-22 21:34N 55°30' E 014°47'1312.8
2016-Jun-22 20:33N 55°37' E 015°06'1312.7
2016-Jun-22 19:33N 55°43' E 015°25'1313.0
2016-Jun-22 18:32N 55°50' E 015°46'1513.1
2016-Jun-22 17:23N 55°58' E 016°09'165 4.7
2016-Jun-21 06:11N 58°37' E 017°26'2113.0
2016-Jun-21 04:34N 58°37' E 016°45'1212.1
2016-Jun-21 03:34N 58°39' E 016°22'4 3.8
2016-Jun-21 02:31N 58°37' E 016°15'0 0.0
2016-Jun-21 01:31N 58°37' E 016°15'0 0.0
2016-Jun-21 00:31N 58°37' E 016°15'0 0.0
2016-Jun-20 23:31N 58°37' E 016°15'0 0.0
2016-Jun-20 22:31N 58°37' E 016°15'0 0.0
2016-Jun-20 21:31N 58°37' E 016°15'0 0.0
2016-Jun-20 20:31N 58°37' E 016°15'0 0.0
2016-Jun-20 19:31N 58°37' E 016°15'0 0.0
2016-Jun-20 18:31N 58°37' E 016°15'0 0.0
2016-Jun-20 17:31N 58°37' E 016°15'0 0.0
2016-Jun-20 16:31N 58°37' E 016°15'0 0.0
2016-Jun-20 15:31N 58°37' E 016°15'0 0.0
2016-Jun-20 14:31N 58°37' E 016°15'0 0.0
2016-Jun-20 13:31N 58°37' E 016°15'0 0.0
2016-Jun-20 12:31N 58°37' E 016°15'0 0.0
2016-Jun-20 11:31N 58°37' E 016°15'0 0.2
2016-Jun-20 10:33N 58°37' E 016°15'8 7.9
2016-Jun-20 09:33N 58°39' E 016°30'1212.2
2016-Jun-20 08:33N 58°36' E 016°53'18210.5
2016-Jun-19 15:11N 55°40' E 015°32'813.0
2016-Jun-19 14:33N 55°36' E 015°19'1313.0
2016-Jun-19 13:33N 55°30' E 014°59'1313.0
2016-Jun-19 12:33N 55°24' E 014°39'1313.0
2016-Jun-19 11:33N 55°13' E 014°25'1313.0
2016-Jun-19 10:33N 55°03' E 014°10'1312.7
2016-Jun-19 09:33N 54°58' E 013°50'4013.4
2016-Jun-19 06:33N 54°45' E 012°44'2713.1
2016-Jun-19 04:31N 54°26' E 012°12'1313.6
2016-Jun-19 03:33N 54°25' E 011°50'1413.8
2016-Jun-19 02:33N 54°30' E 011°28'1414.1
2016-Jun-19 01:34N 54°35' E 011°06'1414.0
2016-Jun-19 00:32N 54°34' E 010°41'1313.5
2016-Jun-18 23:33N 54°30' E 010°19'10 9.9
2016-Jun-18 22:34N 54°22' E 010°09'2 1.6
2016-Jun-18 21:34N 54°22' E 010°06'6 5.8
2016-Jun-18 20:33N 54°20' E 009°57'  
Track history (hours):
 
Tides and Currents Weather Stations Pressure Air Temp Water Temp Dewpoint Dewpoint Depression Visibility Wind Speed Wind Dir Waves Ship Positions

Bitflower

Last reported at 2016-Jun-28 18:33 UTC. Time now 2016-Jun-28 18:49 UTC.
Position N 51°32' E 002°07'.

Length 116 m; draft 6.8 m.

Type: Tanker. MMSI: 266009000.

Date/timePositionNaut miles runAvg speedWind from/ knotsBaromVisibWave heightAir tempDewpointWater temp
2016-Jun-28 18:33N 51°32' E 002°07'6512.8
2016-Jun-28 13:28N 52°04' E 003°40'1112.6
2016-Jun-28 12:33N 52°01' E 003°58'1413.6
2016-Jun-28 11:33N 51°54' E 004°17'3 2.6
2016-Jun-28 10:32N 51°53' E 004°21'0 0.0
2016-Jun-28 09:32N 51°53' E 004°21'0 0.0
2016-Jun-28 08:32N 51°53' E 004°21'0 0.0
2016-Jun-28 07:32N 51°53' E 004°21'0 0.0
2016-Jun-28 06:26N 51°53' E 004°21'0 0.0
2016-Jun-28 04:32N 51°53' E 004°21'0 0.0
2016-Jun-28 03:32N 51°53' E 004°21'0 0.0
2016-Jun-28 02:32N 51°53' E 004°21'0 0.0
2016-Jun-28 01:32N 51°53' E 004°21'0 0.0
2016-Jun-28 00:32N 51°53' E 004°21'0 0.0
2016-Jun-27 23:32N 51°53' E 004°21'0 0.0
2016-Jun-27 22:32N 51°53' E 004°21'0 0.0
2016-Jun-27 21:32N 51°53' E 004°21'0 0.0
2016-Jun-27 20:32N 51°53' E 004°21'0 0.0
2016-Jun-27 19:32N 51°53' E 004°21'0 0.0
2016-Jun-27 18:33N 51°53' E 004°21'1 1.2
2016-Jun-27 17:33N 51°54' E 004°19'2 1.5
2016-Jun-27 16:32N 51°53' E 004°16'0 0.0
2016-Jun-27 15:32N 51°53' E 004°16'0 0.0
2016-Jun-27 14:29N 51°53' E 004°16'0 0.0
2016-Jun-27 13:23N 51°53' E 004°16'0 0.0
2016-Jun-27 12:32N 51°53' E 004°16'0 0.0
2016-Jun-27 11:32N 51°53' E 004°16'0 0.0
2016-Jun-27 10:32N 51°53' E 004°16'0 0.0
2016-Jun-27 09:32N 51°53' E 004°16'0 0.0
2016-Jun-27 08:23N 51°53' E 004°16'0 0.0
2016-Jun-27 07:32N 51°53' E 004°16'0 0.3
2016-Jun-27 06:33N 51°53' E 004°17'6 6.1
2016-Jun-27 05:33N 51°57' E 004°09'1312.6
2016-Jun-27 04:34N 52°02' E 003°50'12 3.0
2016-Jun-27 00:28N 52°12' E 003°41'2311.9
2016-Jun-26 22:33N 52°34' E 003°51'3712.1
2016-Jun-26 19:30N 53°07' E 004°19'1112.0
2016-Jun-26 18:33N 53°17' E 004°28'4012.9
2016-Jun-26 15:26N 53°55' E 004°51'1613.0
2016-Jun-26 14:12N 54°10' E 005°02'23113.1
2016-Jun-25 20:33N 57°30' E 008°29'1313.2
2016-Jun-25 19:33N 57°40' E 008°44'1313.2
2016-Jun-25 18:33N 57°50' E 008°59'1313.2
2016-Jun-25 17:33N 58°01' E 009°13'1313.3
2016-Jun-25 16:33N 58°12' E 009°28'1313.3
2016-Jun-25 15:33N 58°23' E 009°43'1313.2
2016-Jun-25 14:33N 58°33' E 009°58'1313.2
2016-Jun-25 13:33N 58°44' E 010°13'1313.1
2016-Jun-25 12:33N 58°55' E 010°28'1312.7
2016-Jun-25 11:34N 59°02' E 010°48'8 8.3
2016-Jun-25 10:33N 59°09' E 010°58'8 7.8
2016-Jun-25 09:33N 59°16' E 011°04'1 0.9
2016-Jun-25 08:32N 59°16' E 011°02'0 0.0
2016-Jun-25 07:32N 59°16' E 011°02'0 0.0
2016-Jun-25 06:34N 59°16' E 011°02'0 0.0
2016-Jun-25 05:33N 59°16' E 011°02'0 0.0
2016-Jun-25 04:33N 59°16' E 011°02'0 0.0
2016-Jun-25 03:33N 59°16' E 011°02'0 0.0
2016-Jun-25 02:33N 59°16' E 011°02'0 0.0
2016-Jun-25 01:33N 59°16' E 011°02'0 0.0
2016-Jun-25 00:33N 59°16' E 011°02'0 0.0
2016-Jun-24 23:34N 59°16' E 011°02'0 0.0
2016-Jun-24 22:33N 59°16' E 011°02'0 0.0
2016-Jun-24 21:34N 59°16' E 011°02'0 0.0
2016-Jun-24 20:33N 59°16' E 011°02'0 0.0
2016-Jun-24 19:33N 59°16' E 011°02'0 0.0
2016-Jun-24 18:33N 59°16' E 011°02'5 4.8
2016-Jun-24 17:33N 59°12' E 010°57'1110.5
2016-Jun-24 16:33N 59°01' E 010°58'9 8.6
2016-Jun-24 15:33N 58°58' E 010°42'1110.6
2016-Jun-24 14:34N 58°47' E 010°43'1212.4
2016-Jun-24 13:33N 58°35' E 010°47'1313.4
2016-Jun-24 12:33N 58°22' E 010°56'1313.3
2016-Jun-24 11:33N 58°10' E 011°03'1313.3
2016-Jun-24 10:33N 57°58' E 011°13'1312.9
2016-Jun-24 09:33N 57°46' E 011°24'1212.1
2016-Jun-24 08:33N 57°37' E 011°38'8 8.0
2016-Jun-24 07:31N 57°42' E 011°51'0 0.0
2016-Jun-24 04:31N 57°42' E 011°51'0 0.0
2016-Jun-24 03:31N 57°42' E 011°51'0 0.0
2016-Jun-24 02:31N 57°42' E 011°51'0 0.0
2016-Jun-24 01:31N 57°42' E 011°51'0 0.0
2016-Jun-24 00:31N 57°42' E 011°51'0 0.0
2016-Jun-23 23:31N 57°42' E 011°51'0 0.0
2016-Jun-23 22:31N 57°42' E 011°51'0 0.0
2016-Jun-23 21:31N 57°42' E 011°51'0 0.0
2016-Jun-23 20:28N 57°42' E 011°51'0 0.0
2016-Jun-23 19:31N 57°42' E 011°51'0 0.0
2016-Jun-23 18:31N 57°42' E 011°51'0 0.0
2016-Jun-23 17:31N 57°42' E 011°51'0 0.1
2016-Jun-23 16:33N 57°42' E 011°51'9 9.1
2016-Jun-23 15:33N 57°35' E 011°39'1111.5
2016-Jun-23 14:34N 57°24' E 011°42'1312.0
2016-Jun-23 13:30N 57°13' E 011°53'1212.9
2016-Jun-23 12:33N 57°01' E 012°02'1313.0
2016-Jun-23 11:33N 56°49' E 012°11'1312.7
2016-Jun-23 10:33N 56°37' E 012°17'2512.5
2016-Jun-23 08:34N 56°13' E 012°27'1312.6
2016-Jun-23 07:34N 56°02' E 012°40'2512.5
2016-Jun-23 05:34N 55°39' E 012°56'1111.0
2016-Jun-23 04:33N 55°31' E 012°44'1212.5
2016-Jun-23 03:33N 55°18' E 012°41'1312.9
2016-Jun-23 02:33N 55°15' E 013°03'1313.4
2016-Jun-23 01:33N 55°15' E 013°27'1313.3
2016-Jun-23 00:34N 55°14' E 013°50'1313.4
2016-Jun-22 23:33N 55°13' E 014°14'1212.4
2016-Jun-22 22:33N 55°22' E 014°29'1312.9
2016-Jun-22 21:34N 55°30' E 014°47'1312.8
2016-Jun-22 20:33N 55°37' E 015°06'1312.7
2016-Jun-22 19:33N 55°43' E 015°25'1313.0
2016-Jun-22 18:32N 55°50' E 015°46'1513.1
2016-Jun-22 17:23N 55°58' E 016°09'165 4.7
2016-Jun-21 06:11N 58°37' E 017°26'2113.0
2016-Jun-21 04:34N 58°37' E 016°45'1212.1
2016-Jun-21 03:34N 58°39' E 016°22'4 3.8
2016-Jun-21 02:31N 58°37' E 016°15'0 0.0
2016-Jun-21 01:31N 58°37' E 016°15'0 0.0
2016-Jun-21 00:31N 58°37' E 016°15'0 0.0
2016-Jun-20 23:31N 58°37' E 016°15'0 0.0
2016-Jun-20 22:31N 58°37' E 016°15'0 0.0
2016-Jun-20 21:31N 58°37' E 016°15'0 0.0
2016-Jun-20 20:31N 58°37' E 016°15'0 0.0
2016-Jun-20 19:31N 58°37' E 016°15'0 0.0
2016-Jun-20 18:31N 58°37' E 016°15'0 0.0
2016-Jun-20 17:31N 58°37' E 016°15'0 0.0
2016-Jun-20 16:31N 58°37' E 016°15'0 0.0
2016-Jun-20 15:31N 58°37' E 016°15'0 0.0
2016-Jun-20 14:31N 58°37' E 016°15'0 0.0
2016-Jun-20 13:31N 58°37' E 016°15'0 0.0
2016-Jun-20 12:31N 58°37' E 016°15'0 0.0
2016-Jun-20 11:31N 58°37' E 016°15'0 0.2
2016-Jun-20 10:33N 58°37' E 016°15'8 7.9
2016-Jun-20 09:33N 58°39' E 016°30'1212.2
2016-Jun-20 08:33N 58°36' E 016°53'18210.5
2016-Jun-19 15:11N 55°40' E 015°32'813.0
2016-Jun-19 14:33N 55°36' E 015°19'1313.0
2016-Jun-19 13:33N 55°30' E 014°59'1313.0
2016-Jun-19 12:33N 55°24' E 014°39'1313.0
2016-Jun-19 11:33N 55°13' E 014°25'1313.0
2016-Jun-19 10:33N 55°03' E 014°10'1312.7
2016-Jun-19 09:33N 54°58' E 013°50'4013.4
2016-Jun-19 06:33N 54°45' E 012°44'2713.1
2016-Jun-19 04:31N 54°26' E 012°12'1313.6
2016-Jun-19 03:33N 54°25' E 011°50'1413.8
2016-Jun-19 02:33N 54°30' E 011°28'1414.1
2016-Jun-19 01:34N 54°35' E 011°06'1414.0
2016-Jun-19 00:32N 54°34' E 010°41'1313.5
2016-Jun-18 23:33N 54°30' E 010°19'10 9.9
2016-Jun-18 22:34N 54°22' E 010°09'2 1.6
2016-Jun-18 21:34N 54°22' E 010°06'6 5.8
2016-Jun-18 20:33N 54°20' E 009°57'  

Dump ship's entire track history